RÉSULTATS    Les Foulées d'Orléans - Édition du 02/04/2017


Vous pouvez changer la distance ici.

Vous pouvez changer la distance ici.

Classement PDF Général Classement PDF Alphabétique /results/<span class='glyphicon glyphicon-picture'></span> Classement Temps Réel - Temps Puce

982 participants - 665 Hommes - 317 Femmes
194 licenciés (20%) - 788 non-licenciés (80%)

Temps moyen : 00:51:03


    Page / 40



Pos. Temps Nom - Prénom Club Dossard Catégorie km/h Temps Reel
452 00:49:38 HERENGER Hugues HR FACTO TEAM 825 V1M (125 / 212) 12.2 00:49:00
453 00:49:40 BERTHON Stephane MICHEL CREUZOT 162 V1M (126 / 212) 12.1 00:49:30
454 00:49:43 BOUDEAUD Stephane 518 V1M (127 / 212) 12.2 00:48:51
455 00:49:44 LE SAUX Frederic 1004 SEM (193 / 279) 12.3 00:48:46
456 00:49:45 TERRO Robert ASFAS 345 SEM (194 / 279) 12.1 00:49:25
457 00:49:45 VALETTE Anais ASFAS 346 SEF (29 / 162) 12.1 00:49:25
458 00:49:45 COMBY Francois ASFAS 388 V1M (128 / 212) 12.2 00:49:10
459 00:49:52 BOURGEOIS Marine THELEM ASSURANCES 776 SEF (30 / 162) 12.1 00:49:20
460 00:49:52 DESCHAMPS Guillaume BRACELETS-VIP® 560 SEM (195 / 279) 12.0 00:49:44
461 00:49:53 BERNARD Olivier 109 V1M (129 / 212) 12.1 00:49:22
462 00:49:55 GAUTIER Sebastien 76 V1M (130 / 212) 12.2 00:48:59
463 00:49:57 MERCKX Renaud 838 SEM (196 / 279) 12.2 00:49:10
464 00:49:59 ARNOU Laurent MAUVES ATTITUDES RUNNING & TRA 872 V2M (58 / 116) 12.0 00:49:36
465 00:50:00 HALLIER Benoit SAM GIDY 448 V2M (59 / 116) 12.0 00:49:54
466 00:50:01 HERIVAULT Frederic OTC45 47 V2M (60 / 116) 12.1 00:49:26
467 00:50:01 TEYER Pierre 498 SEM (197 / 279) 12.0 00:49:50
468 00:50:02 GENET Damien 824 SEM (198 / 279) 12.0 00:49:48
469 00:50:02 BERTHEAU Cedric GAMAF 523 SEM (199 / 279) 12.1 00:49:24
470 00:50:02 SERAIN Benoit 95 V1M (131 / 212) 12.1 00:49:26
471 00:50:02 PAUTRAT Jacky 62 V3M (16 / 35) 12.0 00:49:43
472 00:50:04 GUICHARD Eric 412 V2M (61 / 116) 12.1 00:49:33
473 00:50:06 MARC Bruno MAUVES ATTITUDES RUNNING & TRA 258 V2M (62 / 116) 12.0 00:49:43
474 00:50:06 GUILLIER Amandine 608 SEF (31 / 162) 12.1 00:49:18
475 00:50:07 PICHON Thierry LES LENTS ABRAYSIENS 659 V2M (63 / 116) 12.2 00:49:10
476 00:50:09 BOULMIER Jean yves 204 SEM (200 / 279) 12.1 00:49:34